Terminal Aerodrome Forecast
Issued by NWS

Home | Current Version | Previous Version | Text Only | Print | Product List | Glossary On
Versions: 1 2 3 4 5 6 7 8 9 10 11 12 13 14 15 16 17
000
FTUS43 KPAH 181139
TAFCGI
TAF
KCGI 181139Z 1812/1912 00000KT 1SM BR BCFG BKN120
     FM181300 VRB03KT 5SM BR BKN120
     FM181400 23005KT P6SM VCSH SCT050 BKN120 PROB30 1821/1901 5SM
      -SHRA BKN035
     FM190100 17002KT P6SM BKN130=

USA.gov is the U.S. government's official web portal to all federal, state and local government web resources and services.